Kiyonami Maru — JL6558 — position and weather

sailwx.info

Track history (hours):
 
Tides and Currents Weather Stations Pressure Air Temp Water Temp Dewpoint Dewpoint Depression Visibility Wind Speed Wind Dir Waves Ship Positions

Kiyonami Maru

Last reported at 2018-Jun-25 16:05 UTC. Time now 2018-Jul-16 14:37 UTC.
Position N 33°49' E 135°03'.
Warning: this ship's position is 20 days out of date.

Length 75 m; draft 3.8 m.

Type: Cargo ship. MMSI: 431501278.

Date/timePositionNaut miles runAvg speedWind from/ knotsBaromVisibWave heightAir tempDewpointWater temp
2018-Jun-25 16:05N 33°49' E 135°03'111.2
2018-Jun-25 15:59N 33°50' E 135°03'511.1
2018-Jun-25 15:31N 33°54' E 134°58'611.2
2018-Jun-25 14:59N 33°58' E 134°54'611.5
2018-Jun-25 14:30N 34°03' E 134°50'1111.6
2018-Jun-25 13:32N 34°12' E 134°41'111.7
2018-Jun-25 13:26N 34°13' E 134°41'811.6
2018-Jun-25 12:47N 34°17' E 134°33'311.4
2018-Jun-25 12:31N 34°18' E 134°30'611.3
2018-Jun-25 12:00N 34°20' E 134°23'  
2018-Jun-17 17:39N 34°25' E 134°19'211.5
2018-Jun-17 17:30N 34°25' E 134°21'611.4
2018-Jun-17 17:00N 34°27' E 134°28'611.5
2018-Jun-17 16:30N 34°29' E 134°34'612.1
2018-Jun-17 16:00N 34°32' E 134°41'713.1
2018-Jun-17 15:30N 34°34' E 134°48'714.6
2018-Jun-17 15:00N 34°37' E 134°57'713.2
2018-Jun-17 14:30N 34°36' E 135°04'612.2
2018-Jun-17 14:00N 34°29' E 135°04'612.9
2018-Jun-17 13:30N 34°23' E 135°02'713.7
2018-Jun-17 13:00N 34°17' E 134°59'612.4
2018-Jun-17 12:30N 34°11' E 134°60'612.3
2018-Jun-17 12:00N 34°04' E 135°01'812.3
2018-Jun-17 11:24N 33°57' E 135°02'247 9.8
2018-Jun-16 10:13N 35°15' E 139°46'210.8
2018-Jun-16 10:00N 35°17' E 139°45'611.2
2018-Jun-16 09:30N 35°22' E 139°42'611.0
2018-Jun-16 09:00N 35°26' E 139°46'611.8
2018-Jun-16 08:28N 35°30' E 139°52'  
Track history (hours):
 
Tides and Currents Weather Stations Pressure Air Temp Water Temp Dewpoint Dewpoint Depression Visibility Wind Speed Wind Dir Waves Ship Positions

Kiyonami Maru

Last reported at 2018-Jun-25 16:05 UTC. Time now 2018-Jul-16 14:37 UTC.
Position N 33°49' E 135°03'.
Warning: this ship's position is 20 days out of date.

Length 75 m; draft 3.8 m.

Type: Cargo ship. MMSI: 431501278.

Date/timePositionNaut miles runAvg speedWind from/ knotsBaromVisibWave heightAir tempDewpointWater temp
2018-Jun-25 16:05N 33°49' E 135°03'111.2
2018-Jun-25 15:59N 33°50' E 135°03'511.1
2018-Jun-25 15:31N 33°54' E 134°58'611.2
2018-Jun-25 14:59N 33°58' E 134°54'611.5
2018-Jun-25 14:30N 34°03' E 134°50'1111.6
2018-Jun-25 13:32N 34°12' E 134°41'111.7
2018-Jun-25 13:26N 34°13' E 134°41'811.6
2018-Jun-25 12:47N 34°17' E 134°33'311.4
2018-Jun-25 12:31N 34°18' E 134°30'611.3
2018-Jun-25 12:00N 34°20' E 134°23'  
2018-Jun-17 17:39N 34°25' E 134°19'211.5
2018-Jun-17 17:30N 34°25' E 134°21'611.4
2018-Jun-17 17:00N 34°27' E 134°28'611.5
2018-Jun-17 16:30N 34°29' E 134°34'612.1
2018-Jun-17 16:00N 34°32' E 134°41'713.1
2018-Jun-17 15:30N 34°34' E 134°48'714.6
2018-Jun-17 15:00N 34°37' E 134°57'713.2
2018-Jun-17 14:30N 34°36' E 135°04'612.2
2018-Jun-17 14:00N 34°29' E 135°04'612.9
2018-Jun-17 13:30N 34°23' E 135°02'713.7
2018-Jun-17 13:00N 34°17' E 134°59'612.4
2018-Jun-17 12:30N 34°11' E 134°60'612.3
2018-Jun-17 12:00N 34°04' E 135°01'812.3
2018-Jun-17 11:24N 33°57' E 135°02'247 9.8
2018-Jun-16 10:13N 35°15' E 139°46'210.8
2018-Jun-16 10:00N 35°17' E 139°45'611.2
2018-Jun-16 09:30N 35°22' E 139°42'611.0
2018-Jun-16 09:00N 35°26' E 139°46'611.8
2018-Jun-16 08:28N 35°30' E 139°52'  

Dump ship's entire track history